createdAt,value
2019-05-17T00:02:26.568Z,8.67
2019-05-17T00:05:37.120Z,9.73
2019-05-17T00:08:47.120Z,12.03
2019-05-17T00:11:56.773Z,13.03
2019-05-17T00:15:06.938Z,11.50
2019-05-17T00:27:36.688Z,14.13
2019-05-17T00:30:46.470Z,18.07
2019-05-17T00:33:56.547Z,15.07
2019-05-17T00:37:07.022Z,20.00
2019-05-17T00:40:16.743Z,22.23
2019-05-17T00:43:26.255Z,23.00
2019-05-17T00:46:34.545Z,18.73
2019-05-17T00:49:43.551Z,23.40
2019-05-17T00:52:51.498Z,20.60
2019-05-17T00:55:59.537Z,22.03
2019-05-17T00:59:07.591Z,21.47
2019-05-17T01:02:16.348Z,23.07
2019-05-17T01:08:37.255Z,19.17
2019-05-17T01:11:47.401Z,18.83
2019-05-17T01:14:55.374Z,22.97
2019-05-17T01:21:02.598Z,22.57
2019-05-17T01:24:10.568Z,25.07
2019-05-17T01:27:19.060Z,25.67
2019-05-17T01:30:27.073Z,23.30
2019-05-17T01:33:36.805Z,26.03
2019-05-17T01:36:46.482Z,26.47
2019-05-17T01:39:57.226Z,29.07
2019-05-17T01:43:04.579Z,22.63
2019-05-17T01:46:12.557Z,28.43
2019-05-17T01:49:22.044Z,25.27
2019-05-17T01:52:32.365Z,25.40
2019-05-17T01:55:41.539Z,25.30
2019-05-17T01:58:49.549Z,25.17
2019-05-17T02:02:02.239Z,29.93
2019-05-17T02:05:10.631Z,22.70
2019-05-17T02:08:18.699Z,23.53
2019-05-17T02:11:27.049Z,26.67
2019-05-17T02:14:37.424Z,22.83
2019-05-17T02:17:46.862Z,22.43
2019-05-17T02:20:57.057Z,21.67
2019-05-17T02:24:07.922Z,24.40
2019-05-17T02:27:15.399Z,21.83
2019-05-17T02:33:33.308Z,23.27
2019-05-17T02:36:43.228Z,20.00
2019-05-17T02:40:02.101Z,19.27
2019-05-17T02:43:03.180Z,24.43
2019-05-17T02:46:13.623Z,23.47
2019-05-17T02:49:23.359Z,26.13
2019-05-17T02:52:32.903Z,22.00
2019-05-17T02:55:43.321Z,22.40
2019-05-17T02:58:53.320Z,23.90
2019-05-17T03:02:03.186Z,22.63
2019-05-17T03:05:12.571Z,21.40
2019-05-17T03:08:23.170Z,18.23
2019-05-17T03:11:33.352Z,21.87
2019-05-17T03:17:47.519Z,21.80
2019-05-17T03:20:55.536Z,21.47
2019-05-17T03:24:03.662Z,22.03
2019-05-17T03:27:13.371Z,17.67
2019-05-17T03:30:25.841Z,20.03
2019-05-17T03:33:35.860Z,17.23
2019-05-17T03:36:46.259Z,15.93
2019-05-17T03:39:53.624Z,21.77
2019-05-17T03:43:02.807Z,16.93
2019-05-17T03:46:13.745Z,19.93
2019-05-17T03:49:22.324Z,22.07
2019-05-17T03:52:33.112Z,18.77
2019-05-17T03:55:43.034Z,17.07
2019-05-17T03:58:53.098Z,15.50
2019-05-17T04:02:03.261Z,16.33
2019-05-17T04:05:12.531Z,22.83
2019-05-17T04:08:22.854Z,19.70
2019-05-17T04:11:35.586Z,23.83
2019-05-17T04:14:42.891Z,19.73
2019-05-17T04:17:55.444Z,22.83
2019-05-17T04:24:12.736Z,21.23
2019-05-17T04:27:22.973Z,29.17
2019-05-17T04:30:32.614Z,22.30
2019-05-17T04:36:52.166Z,26.00
2019-05-17T04:43:06.654Z,24.00
2019-05-17T04:46:16.268Z,25.40
2019-05-17T04:49:24.653Z,28.30
2019-05-17T04:52:33.620Z,30.27
2019-05-17T04:55:43.178Z,27.73
2019-05-17T04:58:54.265Z,34.97
2019-05-17T05:05:13.411Z,30.77
2019-05-17T05:11:32.616Z,30.63
2019-05-17T05:14:39.655Z,30.50
2019-05-17T05:17:47.513Z,24.73
2019-05-17T05:20:55.595Z,28.73
2019-05-17T05:24:04.508Z,29.47
2019-05-17T05:27:12.753Z,30.50
2019-05-17T05:30:22.555Z,30.40
2019-05-17T05:33:33.075Z,27.93
2019-05-17T05:39:51.729Z,27.10
2019-05-17T05:42:58.809Z,25.20
2019-05-17T05:46:06.553Z,27.73
2019-05-17T05:49:14.566Z,28.40
2019-05-17T05:52:22.746Z,24.80
2019-05-17T05:55:32.203Z,24.27
2019-05-17T05:58:42.686Z,24.70
2019-05-17T06:01:52.539Z,23.80
2019-05-17T06:05:02.032Z,24.70
2019-05-17T06:08:12.230Z,24.97
2019-05-17T06:11:21.606Z,24.20
2019-05-17T06:14:29.610Z,24.87
2019-05-17T06:17:37.692Z,28.83
2019-05-17T06:20:46.892Z,21.60
2019-05-17T06:23:55.255Z,21.50
2019-05-17T06:27:03.543Z,21.30
2019-05-17T06:30:12.908Z,21.23
2019-05-17T06:33:30.481Z,17.27
2019-05-17T06:36:32.841Z,20.23
2019-05-17T06:39:42.003Z,21.13
2019-05-17T06:45:57.428Z,20.63
2019-05-17T06:49:05.533Z,18.30
2019-05-17T06:52:13.562Z,19.83
2019-05-17T06:55:21.569Z,16.57
2019-05-17T06:58:31.527Z,18.20
2019-05-17T07:01:43.251Z,16.60
2019-05-17T07:04:53.247Z,21.27
2019-05-17T07:08:01.314Z,14.27
2019-05-17T07:11:09.870Z,15.83
2019-05-17T07:14:52.103Z,16.27
2019-05-17T07:18:00.254Z,18.53
2019-05-17T07:21:10.066Z,16.27
2019-05-17T07:24:19.560Z,16.67
2019-05-17T07:27:38.748Z,14.80
2019-05-17T07:30:40.333Z,16.27
2019-05-17T07:33:50.402Z,17.90
2019-05-17T07:36:59.719Z,13.07
2019-05-17T07:40:10.770Z,17.37
2019-05-17T07:43:20.566Z,19.30
2019-05-17T07:46:29.507Z,15.67
2019-05-17T07:49:40.322Z,11.53
2019-05-17T07:52:49.848Z,11.93
2019-05-17T07:55:59.593Z,15.47
2019-05-17T08:02:14.501Z,14.00
2019-05-17T08:05:22.605Z,11.77
2019-05-17T08:08:31.477Z,16.17
2019-05-17T08:11:40.239Z,15.40
2019-05-17T08:14:50.213Z,12.87
2019-05-17T08:18:01.044Z,12.47
2019-05-17T08:21:10.353Z,15.70
2019-05-17T08:24:19.616Z,13.07
2019-05-17T08:27:29.705Z,15.40
2019-05-17T08:30:40.565Z,11.27
2019-05-17T08:33:49.671Z,11.23
2019-05-17T08:36:56.916Z,11.07
2019-05-17T08:40:04.890Z,12.70
2019-05-17T08:43:13.025Z,9.53
2019-05-17T08:46:21.407Z,12.83
2019-05-17T08:49:29.618Z,12.27
2019-05-17T08:52:40.291Z,8.37
2019-05-17T08:55:49.898Z,7.63
2019-05-17T08:59:00.779Z,9.07
2019-05-17T09:02:10.782Z,6.67
2019-05-17T09:08:26.263Z,5.07
2019-05-17T09:11:34.691Z,5.57
2019-05-17T09:14:43.009Z,6.50
2019-05-17T09:17:50.889Z,6.67
2019-05-17T09:21:00.330Z,4.80
2019-05-17T09:24:10.470Z,10.40
2019-05-17T09:27:19.943Z,5.70
2019-05-17T09:30:31.170Z,6.03
2019-05-17T09:33:40.419Z,4.33
2019-05-17T09:36:49.723Z,5.50
2019-05-17T09:40:00.111Z,4.13
2019-05-17T09:43:10.160Z,3.20
2019-05-17T09:46:19.659Z,4.60
2019-05-17T09:49:29.900Z,3.10
2019-05-17T09:52:40.722Z,5.17
2019-05-17T09:55:49.758Z,4.73
2019-05-17T09:59:00.586Z,5.50
2019-05-17T10:02:09.488Z,3.93
2019-05-17T10:05:19.976Z,8.13
2019-05-17T10:08:27.760Z,5.20
2019-05-17T10:11:36.903Z,6.97
2019-05-17T10:14:45.271Z,6.60
2019-05-17T10:17:53.546Z,8.70
2019-05-17T10:21:01.519Z,6.77
2019-05-17T10:24:09.802Z,9.30
2019-05-17T10:27:19.713Z,6.57
2019-05-17T10:30:29.934Z,5.73
2019-05-17T10:33:40.077Z,9.07
2019-05-17T10:36:50.609Z,8.03
2019-05-17T10:39:59.678Z,10.30
2019-05-17T10:43:10.067Z,8.97
2019-05-17T10:46:17.542Z,9.63
2019-05-17T10:49:25.598Z,10.30
2019-05-17T10:52:33.524Z,9.23
2019-05-17T10:55:41.577Z,8.40
2019-05-17T10:58:49.581Z,11.17
2019-05-17T11:01:59.733Z,9.47
2019-05-17T11:08:14.784Z,10.37
2019-05-17T11:11:23.011Z,8.77
2019-05-17T11:14:31.003Z,11.17
2019-05-17T11:17:40.361Z,12.73
2019-05-17T11:23:55.560Z,8.13
2019-05-17T11:27:03.907Z,8.27
2019-05-17T11:30:12.946Z,9.37
2019-05-17T11:33:21.074Z,10.03
2019-05-17T11:36:29.572Z,7.20
2019-05-17T11:39:37.910Z,6.30
2019-05-17T11:42:46.145Z,8.13
2019-05-17T11:45:54.605Z,7.30
2019-05-17T11:49:04.609Z,8.60
2019-05-17T11:52:12.692Z,5.83
2019-05-17T11:55:21.107Z,7.17
2019-05-17T11:58:29.382Z,8.77
2019-05-17T12:04:45.539Z,7.73
2019-05-17T12:07:53.553Z,7.60
2019-05-17T12:11:02.301Z,10.37
2019-05-17T12:14:10.609Z,7.03
2019-05-17T12:17:18.460Z,9.23
2019-05-17T12:20:26.578Z,6.40
2019-05-17T12:23:34.519Z,6.23
2019-05-17T12:26:42.584Z,7.72
2019-05-17T12:29:50.691Z,7.62
2019-05-17T12:32:59.267Z,7.28
2019-05-17T12:36:07.616Z,7.37
2019-05-17T12:39:16.237Z,11.70
2019-05-17T12:42:24.394Z,9.55
2019-05-17T12:48:39.915Z,10.20
2019-05-17T12:51:47.959Z,8.58
2019-05-17T12:54:56.249Z,11.63
2019-05-17T12:58:04.911Z,8.95
2019-05-17T13:01:12.576Z,12.13
2019-05-17T13:04:20.607Z,11.30
2019-05-17T13:07:29.633Z,10.80
2019-05-17T13:10:37.649Z,9.07
2019-05-17T13:13:45.702Z,13.37
2019-05-17T13:16:53.607Z,10.43
2019-05-17T13:20:02.555Z,9.67
2019-05-17T13:23:11.594Z,10.50
2019-05-17T13:26:19.590Z,12.83
2019-05-17T13:29:27.547Z,14.43
2019-05-17T13:32:35.382Z,12.10
2019-05-17T13:38:52.583Z,14.33
2019-05-17T13:42:00.761Z,12.00
2019-05-17T13:45:08.551Z,13.13
2019-05-17T13:48:16.540Z,13.23
2019-05-17T13:51:24.390Z,14.97
2019-05-17T13:57:39.542Z,15.60
2019-05-17T14:00:48.240Z,12.20
2019-05-17T14:03:56.267Z,8.67
2019-05-17T14:07:04.538Z,12.93
2019-05-17T14:10:26.054Z,12.60
2019-05-17T14:13:22.547Z,9.83
2019-05-17T14:16:34.500Z,7.13
2019-05-17T14:19:41.896Z,9.50
2019-05-17T14:22:49.601Z,19.03
2019-05-17T14:25:57.900Z,12.63
2019-05-17T14:29:05.882Z,12.20
2019-05-17T14:32:14.241Z,8.63
2019-05-17T14:35:23.072Z,7.30
2019-05-17T14:38:31.230Z,9.23
2019-05-17T14:41:40.090Z,9.47
2019-05-17T14:44:49.337Z,9.07
2019-05-17T14:47:57.754Z,13.90
2019-05-17T14:51:05.991Z,20.63
2019-05-17T14:54:13.922Z,11.13
2019-05-17T14:57:21.820Z,9.07
2019-05-17T15:00:30.335Z,8.20
2019-05-17T15:03:38.729Z,6.37
2019-05-17T15:06:46.610Z,9.33
2019-05-17T15:09:54.700Z,6.70
2019-05-17T15:13:02.665Z,12.13
2019-05-17T15:16:11.317Z,16.03
2019-05-17T15:19:20.057Z,9.23
2019-05-17T15:22:28.680Z,12.13
2019-05-17T15:25:37.112Z,8.47
2019-05-17T15:28:45.561Z,9.07
2019-05-17T15:31:53.911Z,14.77
2019-05-17T15:35:02.277Z,11.87
2019-05-17T15:38:11.334Z,11.35
2019-05-17T15:41:19.553Z,18.60
2019-05-17T15:44:27.722Z,10.32
2019-05-17T15:47:35.709Z,10.53
2019-05-17T15:50:44.557Z,7.90
2019-05-17T15:53:52.611Z,9.27
2019-05-17T15:57:00.529Z,6.20
2019-05-17T16:00:09.302Z,8.85
2019-05-17T16:06:24.634Z,5.87
2019-05-17T16:09:32.750Z,9.95
2019-05-17T16:12:40.636Z,9.83
2019-05-17T16:15:48.551Z,9.90
2019-05-17T16:18:56.539Z,7.47
2019-05-17T16:22:04.610Z,7.33
2019-05-17T16:25:12.632Z,6.90
2019-05-17T16:28:20.687Z,6.37
2019-05-17T16:31:28.552Z,6.43
2019-05-17T16:34:36.650Z,6.03
2019-05-17T16:37:44.732Z,5.27
2019-05-17T16:40:53.296Z,6.87
2019-05-17T16:44:01.590Z,7.77
2019-05-17T16:47:10.241Z,5.33
2019-05-17T16:50:19.462Z,6.37
2019-05-17T16:53:27.587Z,7.30
2019-05-17T16:56:36.077Z,5.80
2019-05-17T16:59:44.324Z,6.70
2019-05-17T17:02:52.610Z,15.50
2019-05-17T17:06:02.259Z,11.57
2019-05-17T17:09:10.602Z,10.80
2019-05-17T17:12:18.945Z,9.43
2019-05-17T17:15:27.610Z,9.37
2019-05-17T17:18:35.601Z,15.57
2019-05-17T17:21:43.924Z,16.50
2019-05-17T17:24:52.228Z,13.40
2019-05-17T17:28:00.669Z,10.83
2019-05-17T17:31:10.685Z,18.80
2019-05-17T17:34:21.282Z,23.70
2019-05-17T17:37:29.558Z,8.73
2019-05-17T17:40:38.044Z,10.33
2019-05-17T17:43:58.026Z,9.47
2019-05-17T17:46:57.670Z,12.47
2019-05-17T17:50:06.460Z,14.73
2019-05-17T17:56:25.259Z,9.43
2019-05-17T17:59:36.404Z,12.80
2019-05-17T18:05:51.945Z,6.00
2019-05-17T18:09:02.048Z,4.47
2019-05-17T18:12:13.948Z,5.50
2019-05-17T18:15:21.797Z,7.20
2019-05-17T18:18:30.593Z,9.73
2019-05-17T18:21:39.544Z,8.73
2019-05-17T18:24:49.270Z,20.07
2019-05-17T18:27:57.597Z,8.50
2019-05-17T18:31:06.547Z,8.50
2019-05-17T18:34:14.576Z,7.63
2019-05-17T18:37:22.589Z,11.10
2019-05-17T18:40:31.365Z,6.53
2019-05-17T18:46:46.511Z,6.43
2019-05-17T18:49:57.117Z,9.97
2019-05-17T18:53:15.968Z,7.60
2019-05-17T18:56:18.357Z,5.17
2019-05-17T19:02:37.946Z,6.10
2019-05-17T19:05:46.690Z,5.53
2019-05-17T19:09:02.296Z,6.13
2019-05-17T19:12:16.084Z,6.17
2019-05-17T19:15:25.145Z,11.87
2019-05-17T19:21:42.286Z,19.53
2019-05-17T19:24:51.943Z,29.63
2019-05-17T19:28:07.790Z,19.53
2019-05-17T19:31:15.839Z,22.90
2019-05-17T19:34:25.095Z,23.60
2019-05-17T19:37:35.995Z,21.10
2019-05-17T19:40:46.110Z,25.90
2019-05-17T19:47:04.548Z,16.63
2019-05-17T19:50:14.426Z,31.00
2019-05-17T19:53:23.934Z,12.90
2019-05-17T19:56:33.938Z,10.37
2019-05-17T19:59:43.586Z,8.73
2019-05-17T20:02:52.897Z,16.73
2019-05-17T20:06:04.609Z,15.50
2019-05-17T20:09:12.593Z,35.23
2019-05-17T20:12:21.215Z,37.80
2019-05-17T20:15:34.578Z,33.33
2019-05-17T20:18:41.015Z,27.67
2019-05-17T20:21:49.341Z,17.07
2019-05-17T20:24:58.928Z,28.33
2019-05-17T20:28:09.264Z,28.33
2019-05-17T20:31:17.670Z,37.37
2019-05-17T20:34:25.922Z,30.30
2019-05-17T20:37:33.941Z,22.03
2019-05-17T20:40:42.376Z,21.07
2019-05-17T20:43:50.533Z,13.07
2019-05-17T20:46:58.558Z,12.97
2019-05-17T20:50:07.728Z,15.20
2019-05-17T20:53:18.963Z,14.23
2019-05-17T20:56:32.890Z,18.60
2019-05-17T20:59:37.291Z,18.87
2019-05-17T21:02:46.572Z,16.47
2019-05-17T21:05:55.559Z,16.53
2019-05-17T21:09:06.430Z,16.10
2019-05-17T21:15:22.576Z,24.33
2019-05-17T21:18:31.110Z,17.77
2019-05-17T21:21:39.645Z,16.80
2019-05-17T21:24:47.558Z,19.57
2019-05-17T21:27:56.025Z,20.27
2019-05-17T21:31:07.795Z,25.63
2019-05-17T21:34:13.926Z,22.17
2019-05-17T21:37:21.712Z,27.50
2019-05-17T21:40:30.530Z,30.00
2019-05-17T21:43:38.538Z,24.57
2019-05-17T21:47:02.226Z,25.50
2019-05-17T21:49:56.561Z,23.07
2019-05-17T21:53:04.572Z,20.63
2019-05-17T21:56:13.106Z,37.40
2019-05-17T21:59:21.021Z,26.23
2019-05-17T22:02:29.455Z,22.50
2019-05-17T22:05:37.548Z,16.77
2019-05-17T22:08:45.568Z,14.10
2019-05-17T22:11:55.621Z,13.57
2019-05-17T22:15:05.778Z,18.60
2019-05-17T22:18:18.563Z,19.93
2019-05-17T22:21:24.889Z,16.37
2019-05-17T22:24:32.713Z,20.97
2019-05-17T22:27:40.657Z,12.33
2019-05-17T22:30:48.937Z,11.97
2019-05-17T22:33:56.926Z,17.40
2019-05-17T22:37:04.680Z,10.53
2019-05-17T22:40:12.718Z,10.13
2019-05-17T22:43:21.129Z,11.63
2019-05-17T22:46:36.275Z,11.97
2019-05-17T22:49:40.235Z,8.47
2019-05-17T22:52:48.835Z,12.33
2019-05-17T22:55:57.294Z,16.53
2019-05-17T22:59:05.591Z,8.93
2019-05-17T23:02:15.234Z,17.77
2019-05-17T23:05:26.179Z,10.53
2019-05-17T23:08:33.610Z,11.03
2019-05-17T23:11:41.613Z,11.63
2019-05-17T23:14:49.675Z,10.50
2019-05-17T23:17:58.550Z,9.63
2019-05-17T23:21:06.561Z,11.23
2019-05-17T23:24:14.560Z,9.50
2019-05-17T23:27:23.558Z,14.53
2019-05-17T23:30:31.590Z,15.90
2019-05-17T23:33:39.518Z,16.50
2019-05-17T23:36:47.573Z,7.67
2019-05-17T23:39:56.537Z,9.53
2019-05-17T23:43:04.600Z,11.73
2019-05-17T23:46:14.575Z,8.50
2019-05-17T23:49:22.528Z,9.30
2019-05-17T23:52:31.255Z,8.17
2019-05-17T23:55:39.430Z,7.93
2019-05-17T23:58:47.539Z,7.90
